Time;durP1;ratioP1;P1;durP2;ratioP2;P2;SDS_P1;SDS_P2;PMS_P1;PMS_P2;Temp;Humidity;BMP_temperature;BMP_pressure;BME280_temperature;BME280_humidity;BME280_pressure;Samples;Min_cycle;Max_cycle;Signal;HPM_P1;HPM_P2
2023/09/30 00:02:25;;;;;;;2.40;1.40;;;14.60;93.20;;;;;;4974861;28;20046;-14
2023/09/30 00:04:51;;;;;;;2.35;1.33;;;14.70;93.20;;;;;;4980530;28;20504;-15
2023/09/30 00:07:16;;;;;;;2.00;1.40;;;14.60;93.20;;;;;;4990820;28;20143;-14
2023/09/30 00:09:42;;;;;;;2.33;1.30;;;14.60;93.20;;;;;;4991428;28;20333;-15
2023/09/30 00:12:08;;;;;;;4.73;2.17;;;14.60;93.30;;;;;;4966356;28;20684;-15
2023/09/30 00:14:33;;;;;;;1.85;1.10;;;14.70;93.30;;;;;;4992388;28;20443;-14
2023/09/30 00:16:59;;;;;;;2.20;1.30;;;14.60;93.20;;;;;;4983170;28;20488;-14
2023/09/30 00:19:26;;;;;;;2.08;1.20;;;14.60;93.20;;;;;;4984061;28;20030;-14
2023/09/30 00:21:51;;;;;;;1.80;1.23;;;14.60;93.20;;;;;;4993163;28;20120;-16
2023/09/30 00:24:17;;;;;;;3.22;1.50;;;14.60;93.20;;;;;;4994015;28;20667;-16
2023/09/30 00:26:43;;;;;;;3.17;1.60;;;14.60;93.20;;;;;;4963435;28;20037;-16
2023/09/30 00:29:10;;;;;;;1.88;1.30;;;14.60;93.20;;;;;;4985405;28;20133;-16
2023/09/30 00:31:35;;;;;;;2.40;1.30;;;14.60;93.20;;;;;;4985835;28;20076;-16
2023/09/30 00:34:01;;;;;;;3.30;1.40;;;14.50;93.20;;;;;;5003108;27;20213;-16
2023/09/30 00:36:27;;;;;;;1.93;1.40;;;14.50;93.20;;;;;;4983277;28;20047;-16
2023/09/30 00:38:53;;;;;;;3.95;1.30;;;14.50;93.20;;;;;;5056293;28;20437;-16
2023/09/30 00:41:19;;;;;;;2.08;1.27;;;14.50;93.30;;;;;;4958557;28;20245;-16
2023/09/30 00:43:48;;;;;;;2.37;1.40;;;14.50;93.30;;;;;;4987853;28;20033;-16
2023/09/30 00:46:30;;;;;;;2.90;1.45;;;14.50;93.40;;;;;;5012485;28;20492;-16
2023/09/30 00:48:58;;;;;;;2.17;1.55;;;14.40;93.30;;;;;;4993738;28;20027;-16
2023/09/30 00:51:24;;;;;;;2.17;1.15;;;14.40;93.30;;;;;;4990643;28;20025;-16
2023/09/30 00:53:52;;;;;;;2.57;1.30;;;14.40;93.30;;;;;;4991344;28;20045;-16
2023/09/30 00:56:19;;;;;;;2.10;1.40;;;14.40;93.40;;;;;;4987186;28;20029;-16
2023/09/30 00:58:47;;;;;;;3.00;1.40;;;14.40;93.70;;;;;;4960589;28;20034;-15
2023/09/30 01:01:13;;;;;;;2.72;1.40;;;14.40;93.40;;;;;;4987175;28;20057;-16
2023/09/30 01:03:39;;;;;;;3.30;1.70;;;14.30;93.40;;;;;;5000085;22;20651;-14
2023/09/30 01:06:05;;;;;;;1.90;1.27;;;14.30;93.40;;;;;;4994469;28;20090;-14
2023/09/30 01:08:32;;;;;;;2.30;1.60;;;14.30;93.40;;;;;;5076286;28;20041;-13
2023/09/30 01:10:58;;;;;;;2.50;1.50;;;14.30;93.40;;;;;;5077368;28;20113;-14
2023/09/30 01:13:35;;;;;;;2.37;1.37;;;14.30;93.40;;;;;;5033352;28;20018;-13
2023/09/30 01:16:11;;;;;;;1.77;1.20;;;14.30;93.50;;;;;;4999370;28;20078;-14
2023/09/30 01:18:38;;;;;;;3.78;1.20;;;14.20;93.50;;;;;;5001174;28;20029;-14
2023/09/30 01:21:05;;;;;;;1.65;1.15;;;14.20;93.40;;;;;;5015208;28;20525;-15
2023/09/30 01:23:32;;;;;;;1.90;1.30;;;14.20;93.30;;;;;;4996733;28;20021;-14
2023/09/30 01:26:09;;;;;;;2.67;1.37;;;14.20;93.40;;;;;;5078110;28;20013;-15
2023/09/30 01:28:35;;;;;;;1.90;1.30;;;14.20;93.40;;;;;;4985870;28;20057;-13
2023/09/30 01:31:01;;;;;;;1.98;1.20;;;14.20;93.40;;;;;;5090407;27;20104;-15
2023/09/30 01:33:28;;;;;;;2.05;1.40;;;14.10;93.30;;;;;;4996691;28;20114;-14
2023/09/30 01:35:54;;;;;;;2.53;1.30;;;14.10;93.30;;;;;;5072937;28;20037;-14
2023/09/30 01:38:20;;;;;;;1.92;1.02;;;14.10;93.40;;;;;;5048341;28;20041;-14
2023/09/30 01:40:47;;;;;;;1.92;1.10;;;14.60;95.40;;;;;;5059953;28;20253;-14
2023/09/30 01:43:16;;;;;;;2.10;1.30;;;14.30;95.30;;;;;;5079246;28;20032;-14
2023/09/30 01:45:44;;;;;;;2.00;1.33;;;14.00;93.30;;;;;;5029537;28;20043;-13
2023/09/30 01:48:10;;;;;;;2.43;1.50;;;14.00;93.40;;;;;;5001371;28;20388;-14
2023/09/30 01:50:39;;;;;;;1.90;1.30;;;13.90;93.30;;;;;;4993784;28;20025;-14
2023/09/30 01:53:09;;;;;;;1.20;1.10;;;13.30;95.20;;;;;;5032093;28;20065;-14
2023/09/30 01:55:36;;;;;;;2.13;1.30;;;13.90;93.30;;;;;;5073683;28;20418;-14
2023/09/30 01:58:02;;;;;;;2.05;1.25;;;13.90;93.30;;;;;;5077398;28;20108;-15
2023/09/30 02:00:28;;;;;;;2.00;1.10;;;13.90;93.30;;;;;;5047484;28;20558;-14
2023/09/30 02:02:57;;;;;;;2.08;1.20;;;13.80;93.30;;;;;;5053572;28;20060;-13
2023/09/30 02:05:24;;;;;;;2.35;1.45;;;13.90;93.40;;;;;;5066848;28;20616;-15
2023/09/30 02:07:50;;;;;;;2.53;1.10;;;;;;;;;;5078037;28;20471;-13
2023/09/30 02:10:18;;;;;;;1.45;1.10;;;13.80;93.10;;;;;;5060923;28;20062;-14
2023/09/30 02:12:44;;;;;;;1.63;1.10;;;13.80;93.30;;;;;;5083945;28;20083;-14
2023/09/30 02:15:11;;;;;;;2.17;1.30;;;13.70;93.30;;;;;;5042397;28;20097;-14
2023/09/30 02:17:37;;;;;;;2.40;1.50;;;13.70;93.30;;;;;;5038260;28;20024;-14
2023/09/30 02:20:07;;;;;;;1.75;1.20;;;13.70;93.30;;;;;;5071802;28;20246;-18
2023/09/30 02:22:33;;;;;;;2.23;1.30;;;13.70;93.30;;;;;;5084437;28;20022;-17
2023/09/30 02:24:58;;;;;;;3.10;1.45;;;13.60;93.20;;;;;;5061466;28;20561;-17
2023/09/30 02:27:24;;;;;;;1.80;1.13;;;13.60;93.60;;;;;;5083306;28;20032;-15
2023/09/30 02:29:50;;;;;;;1.90;1.20;;;13.60;93.30;;;;;;5056598;28;20047;-14
2023/09/30 02:32:17;;;;;;;1.67;1.00;;;13.00;95.00;;;;;;5059541;28;20191;-15
2023/09/30 02:34:44;;;;;;;2.00;1.00;;;12.50;95.40;;;;;;5084683;28;20027;-14
2023/09/30 02:37:10;;;;;;;1.38;1.00;;;13.50;93.30;;;;;;5057513;28;20218;-14
2023/09/30 02:39:37;;;;;;;1.90;1.05;;;13.50;93.30;;;;;;5041948;28;20039;-14
2023/09/30 02:42:02;;;;;;;1.67;1.08;;;13.50;93.40;;;;;;5072637;28;20055;-17
2023/09/30 02:44:28;;;;;;;1.70;1.20;;;13.40;93.40;;;;;;5076992;28;20023;-15
2023/09/30 02:46:54;;;;;;;1.25;1.00;;;13.40;93.40;;;;;;5066082;28;20016;-14
2023/09/30 02:49:21;;;;;;;1.42;1.05;;;13.40;93.50;;;;;;5067876;28;20016;-15
2023/09/30 02:51:47;;;;;;;2.90;1.30;;;13.40;93.50;;;;;;5076489;28;20106;-14
2023/09/30 02:54:15;;;;;;;1.10;0.90;;;13.40;93.60;;;;;;5077518;28;20135;-15
2023/09/30 02:56:41;;;;;;;1.40;0.93;;;13.40;93.60;;;;;;5088643;28;20020;-14
2023/09/30 02:59:07;;;;;;;1.88;1.15;;;13.40;93.70;;;;;;5086070;27;20241;-14
2023/09/30 03:01:33;;;;;;;2.20;1.13;;;13.40;93.60;;;;;;5077948;27;20024;-15
2023/09/30 03:03:59;;;;;;;1.60;1.27;;;13.20;96.00;;;;;;5047593;28;20052;-15
2023/09/30 03:06:25;;;;;;;2.47;1.20;;;13.40;93.70;;;;;;5055732;28;20038;-15
2023/09/30 03:08:51;;;;;;;1.48;1.20;;;13.40;93.70;;;;;;5054741;28;20553;-14
2023/09/30 03:11:19;;;;;;;3.63;1.40;;;13.40;93.70;;;;;;5082535;28;20319;-15
2023/09/30 03:13:45;;;;;;;2.05;1.20;;;13.40;93.70;;;;;;5069588;28;20016;-14
2023/09/30 03:16:11;;;;;;;2.55;1.27;;;13.40;93.70;;;;;;5061704;28;20519;-15
2023/09/30 03:18:37;;;;;;;1.77;1.20;;;13.40;93.70;;;;;;5049450;28;20066;-15
2023/09/30 03:21:13;;;;;;;1.70;1.13;;;13.40;93.70;;;;;;5054242;28;20123;-15
2023/09/30 03:23:40;;;;;;;2.05;1.02;;;13.10;95.80;;;;;;5062293;28;20138;-14
2023/09/30 03:26:09;;;;;;;1.33;1.00;;;13.40;93.70;;;;;;5056325;28;20574;-15
2023/09/30 03:28:36;;;;;;;1.02;0.82;;;13.40;93.60;;;;;;5059945;28;20527;-14
2023/09/30 03:31:04;;;;;;;1.83;0.90;;;13.40;93.60;;;;;;5068148;28;20358;-15
2023/09/30 03:33:34;;;;;;;1.50;1.20;;;13.40;93.70;;;;;;5053292;28;20496;-14
2023/09/30 03:35:59;;;;;;;1.80;1.10;;;13.40;93.60;;;;;;5086943;28;20232;-15
2023/09/30 03:38:26;;;;;;;1.88;1.20;;;13.40;93.60;;;;;;5062772;28;20028;-15
2023/09/30 03:40:54;;;;;;;1.87;1.20;;;13.40;94.00;;;;;;5055883;28;20015;-13
2023/09/30 03:43:21;;;;;;;1.90;1.25;;;13.40;93.70;;;;;;5072746;28;20913;-13
2023/09/30 03:45:47;;;;;;;2.75;1.30;;;13.30;93.70;;;;;;5088608;27;20367;-14
2023/09/30 03:48:13;;;;;;;3.30;1.17;;;13.30;93.70;;;;;;5019213;28;20101;-14
2023/09/30 03:50:39;;;;;;;1.63;1.20;;;13.30;93.80;;;;;;5087544;28;20478;-13
2023/09/30 03:53:09;;;;;;;1.48;1.00;;;13.30;93.80;;;;;;5086994;28;20502;-14
2023/09/30 03:55:35;;;;;;;2.50;1.40;;;13.30;93.80;;;;;;5060323;28;20427;-14
2023/09/30 03:58:02;;;;;;;2.40;1.77;;;13.30;93.80;;;;;;5052861;28;20028;-14
2023/09/30 04:00:28;;;;;;;2.78;1.40;;;13.20;93.80;;;;;;5086293;28;20032;-14
2023/09/30 04:02:58;;;;;;;5.32;2.03;;;13.20;96.00;;;;;;5072639;28;20102;-13
2023/09/30 04:05:36;;;;;;;2.28;1.33;;;13.20;93.90;;;;;;5008726;28;20066;-14
2023/09/30 04:08:03;;;;;;;3.45;1.70;;;13.20;93.90;;;;;;4982457;28;20120;-14
2023/09/30 04:10:31;;;;;;;2.27;1.40;;;13.20;93.90;;;;;;5038668;28;20528;-13
2023/09/30 04:12:58;;;;;;;2.28;1.30;;;12.00;96.00;;;;;;5037858;28;20096;-14
2023/09/30 04:15:24;;;;;;;2.25;1.10;;;13.00;96.00;;;;;;5041570;28;20094;-14
2023/09/30 04:17:51;;;;;;;1.90;1.00;;;13.20;93.90;;;;;;5049117;28;20286;-14
2023/09/30 04:20:22;;;;;;;2.03;1.20;;;13.20;93.90;;;;;;4946833;28;20281;-14
2023/09/30 04:22:49;;;;;;;1.50;1.15;;;15.90;97.20;;;;;;5049048;28;20054;-14
2023/09/30 04:25:16;;;;;;;1.70;1.10;;;12.90;96.00;;;;;;5040708;28;20041;-14
2023/09/30 04:27:43;;;;;;;2.13;1.23;;;13.10;93.90;;;;;;4975033;28;20097;-13
2023/09/30 04:30:10;;;;;;;1.80;1.05;;;13.10;93.90;;;;;;4979280;28;20045;-14
2023/09/30 04:32:36;;;;;;;2.30;1.50;;;13.10;93.80;;;;;;5042347;28;20026;-13
2023/09/30 04:35:04;;;;;;;1.60;1.20;;;12.80;95.80;;;;;;5045833;28;20107;-14
2023/09/30 04:37:29;;;;;;;2.95;1.20;;;13.00;93.90;;;;;;5031626;28;20037;-13
2023/09/30 04:39:55;;;;;;;2.73;1.27;;;13.00;93.80;;;;;;5055337;28;20030;-14
2023/09/30 04:42:21;;;;;;;2.20;1.30;;;13.00;93.80;;;;;;5031252;28;20536;-13
2023/09/30 04:44:46;;;;;;;2.17;1.05;;;12.70;95.80;;;;;;5059728;28;20027;-13
2023/09/30 04:47:12;;;;;;;2.00;1.27;;;13.00;93.80;;;;;;4982079;28;20092;-14
2023/09/30 04:49:38;;;;;;;2.92;1.27;;;13.00;93.80;;;;;;5050275;28;20115;-14
2023/09/30 04:52:07;;;;;;;1.90;1.20;;;12.90;93.70;;;;;;4953147;28;20039;-14
2023/09/30 04:54:35;;;;;;;1.75;1.00;;;12.90;93.70;;;;;;5049821;28;20159;-15
2023/09/30 04:57:02;;;;;;;2.05;1.13;;;12.90;93.80;;;;;;4989647;28;20034;-15
2023/09/30 04:59:28;;;;;;;2.23;1.30;;;12.90;93.80;;;;;;5040172;28;20027;-15
2023/09/30 05:01:54;;;;;;;1.63;1.10;;;12.90;93.80;;;;;;4960996;28;20030;-15
2023/09/30 05:04:20;;;;;;;2.35;1.30;;;12.80;93.80;;;;;;5053061;28;20050;-14
2023/09/30 05:06:46;;;;;;;1.98;1.30;;;12.40;95.90;;;;;;5006086;28;20534;-14
2023/09/30 05:09:12;;;;;;;2.13;1.40;;;12.80;93.90;;;;;;5034108;28;20156;-15
2023/09/30 05:11:38;;;;;;;1.58;1.10;;;12.80;93.80;;;;;;4985073;28;20034;-15
2023/09/30 05:14:05;;;;;;;2.60;1.42;;;12.80;93.90;;;;;;5023899;28;20226;-15
2023/09/30 05:16:31;;;;;;;2.67;1.40;;;12.80;93.90;;;;;;5060636;28;20041;-15
2023/09/30 05:18:57;;;;;;;2.27;1.33;;;12.80;93.90;;;;;;5045928;28;20080;-15
2023/09/30 05:21:23;;;;;;;1.95;1.10;;;12.70;93.90;;;;;;4980036;28;20121;-15
2023/09/30 05:23:49;;;;;;;2.28;1.20;;;12.70;93.90;;;;;;4994600;28;20083;-14
2023/09/30 05:26:15;;;;;;;1.73;1.10;;;12.70;93.90;;;;;;5049370;28;20487;-15
2023/09/30 05:28:42;;;;;;;2.38;1.20;;;14.00;96.40;;;;;;4979013;28;20031;-14
2023/09/30 05:31:08;;;;;;;1.70;1.02;;;12.60;93.90;;;;;;5046463;28;20132;-15
2023/09/30 05:33:35;;;;;;;3.33;1.30;;;12.70;93.90;;;;;;4985690;28;20180;-15
2023/09/30 05:36:02;;;;;;;1.45;1.20;;;12.60;93.90;;;;;;4972167;28;20653;-15
2023/09/30 05:38:31;;;;;;;1.53;1.13;;;12.60;93.90;;;;;;4959938;28;20049;-15
2023/09/30 05:40:58;;;;;;;1.88;1.10;;;12.60;93.90;;;;;;4971276;28;20685;-14
2023/09/30 05:43:25;;;;;;;3.25;1.48;;;12.60;93.90;;;;;;5055867;28;20034;-15
2023/09/30 05:45:54;;;;;;;2.65;1.20;;;12.60;93.90;;;;;;4969791;28;20531;-15
2023/09/30 05:48:21;;;;;;;3.15;1.30;;;12.60;93.70;;;;;;5055768;28;20113;-15
2023/09/30 05:50:47;;;;;;;1.63;1.10;;;12.60;94.00;;;;;;4969856;28;20017;-15
2023/09/30 05:53:13;;;;;;;1.88;1.13;;;11.90;96.20;;;;;;5022946;28;20203;-14
2023/09/30 05:55:42;;;;;;;2.88;1.30;;;12.50;94.00;;;;;;4963151;28;20248;-15
2023/09/30 05:58:14;;;;;;;1.88;1.08;;;12.60;94.00;;;;;;4983337;28;20455;-15
2023/09/30 06:00:41;;;;;;;2.17;1.20;;;12.60;94.10;;;;;;4966604;28;20034;-14
2023/09/30 06:03:08;;;;;;;3.13;1.50;;;12.40;96.30;;;;;;4979373;28;20030;-15
2023/09/30 06:05:34;;;;;;;1.95;1.20;;;12.50;94.40;;;;;;5083370;28;20043;-15
2023/09/30 06:08:04;;;;;;;2.83;1.30;;;12.50;94.10;;;;;;5059451;28;20221;-15
2023/09/30 06:10:30;;;;;;;1.98;1.30;;;12.60;94.30;;;;;;5043837;28;20071;-14
2023/09/30 06:12:57;;;;;;;1.70;1.20;;;12.60;94.20;;;;;;5057485;28;20155;-15
2023/09/30 06:15:25;;;;;;;2.63;1.05;;;12.60;94.30;;;;;;5090886;28;20027;-15
2023/09/30 06:17:52;;;;;;;2.53;1.33;;;12.60;94.30;;;;;;5082707;28;20114;-16
2023/09/30 06:20:19;;;;;;;2.50;1.50;;;12.60;94.40;;;;;;5096790;28;20020;-15
2023/09/30 06:22:45;;;;;;;1.90;1.13;;;12.60;94.40;;;;;;5067563;28;20074;-14
2023/09/30 06:25:16;;;;;;;1.90;1.20;;;12.70;94.50;;;;;;5065984;27;20023;-13
2023/09/30 06:27:46;;;;;;;1.92;1.10;;;12.70;94.60;;;;;;5061130;28;20470;-14
2023/09/30 06:30:13;;;;;;;2.30;1.40;;;12.70;94.60;;;;;;5079232;28;20062;-14
2023/09/30 06:32:40;;;;;;;2.20;1.20;;;12.80;94.60;;;;;;5064278;27;20398;-14
2023/09/30 06:35:06;;;;;;;2.33;1.17;;;12.80;94.70;;;;;;5098580;28;20637;-13
2023/09/30 06:37:32;;;;;;;1.70;1.00;;;12.80;94.70;;;;;;5077328;28;20024;-13
2023/09/30 06:39:58;;;;;;;3.22;1.20;;;12.90;94.70;;;;;;5088369;28;20632;-14
2023/09/30 06:42:25;;;;;;;1.83;1.20;;;12.90;94.70;;;;;;5071018;27;20191;-14
2023/09/30 06:44:52;;;;;;;2.28;1.15;;;12.90;94.80;;;;;;5062972;28;20267;-14
2023/09/30 06:47:18;;;;;;;2.20;1.10;;;13.00;94.80;;;;;;5079383;28;20084;-14
2023/09/30 06:49:45;;;;;;;2.03;1.10;;;13.00;94.90;;;;;;5082530;27;20031;-13
2023/09/30 06:52:10;;;;;;;2.10;1.15;;;13.10;95.00;;;;;;5098854;27;20393;-13
2023/09/30 06:54:36;;;;;;;1.83;1.20;;;13.20;95.10;;;;;;5050249;28;20035;-13
2023/09/30 06:57:02;;;;;;;3.03;1.50;;;13.20;95.30;;;;;;5071205;28;20369;-13
2023/09/30 06:59:28;;;;;;;1.63;1.13;;;13.30;95.30;;;;;;5080675;27;20023;-13
2023/09/30 07:01:54;;;;;;;2.27;1.27;;;13.40;95.40;;;;;;5083868;28;20038;-13
2023/09/30 07:04:21;;;;;;;2.27;1.20;;;13.40;97.40;;;;;;5083766;27;20636;-13
2023/09/30 07:06:47;;;;;;;1.98;1.15;;;13.50;95.60;;;;;;5098802;27;20042;-14
2023/09/30 07:09:13;;;;;;;2.65;1.67;;;13.60;95.70;;;;;;5079265;27;20035;-13
2023/09/30 07:11:38;;;;;;;2.50;1.30;;;13.70;95.80;;;;;;5036371;27;20696;-13
2023/09/30 07:14:04;;;;;;;2.95;1.70;;;13.80;95.90;;;;;;5079638;27;20581;-13
2023/09/30 07:16:30;;;;;;;3.42;1.20;;;13.90;96.10;;;;;;5057366;27;20051;-14
2023/09/30 07:18:56;;;;;;;1.87;1.23;;;14.10;96.20;;;;;;5088870;27;20024;-14
2023/09/30 07:21:21;;;;;;;3.05;1.40;;;14.20;96.40;;;;;;5081314;27;20105;-13
2023/09/30 07:23:48;;;;;;;3.43;1.57;;;14.30;96.50;;;;;;5056698;28;20059;-14
2023/09/30 07:26:14;;;;;;;3.05;1.48;;;14.50;96.70;;;;;;5083120;28;20531;-13
2023/09/30 07:28:40;;;;;;;2.97;1.50;;;14.60;96.70;;;;;;5052866;27;21672;-14
2023/09/30 07:31:06;;;;;;;2.83;1.50;;;14.80;96.90;;;;;;5087849;28;20096;-14
2023/09/30 07:33:32;;;;;;;3.43;1.90;;;14.90;97.00;;;;;;5078976;28;20305;-14
2023/09/30 07:35:58;;;;;;;3.58;1.75;;;15.10;97.30;;;;;;5080488;28;20119;-15
2023/09/30 07:38:24;;;;;;;3.22;1.73;;;15.30;97.50;;;;;;5076704;28;20390;-14
2023/09/30 07:40:49;;;;;;;3.87;1.63;;;15.50;97.60;;;;;;5077540;28;20089;-15
2023/09/30 07:43:17;;;;;;;3.42;1.80;;;15.60;97.70;;;;;;5071518;28;20338;-15
2023/09/30 07:45:43;;;;;;;4.75;1.83;;;15.90;97.80;;;;;;5063197;28;20655;-15
2023/09/30 07:48:09;;;;;;;4.03;1.90;;;16.10;98.10;;;;;;5075306;28;20034;-15
2023/09/30 07:50:36;;;;;;;5.13;1.83;;;16.30;98.70;;;;;;5079428;28;20224;-15
2023/09/30 07:53:02;;;;;;;4.90;2.08;;;16.60;99.20;;;;;;5091582;28;20019;-14
2023/09/30 07:55:28;;;;;;;4.15;2.00;;;17.00;99.60;;;;;;5068063;28;20028;-14
2023/09/30 07:57:54;;;;;;;4.13;2.00;;;17.30;99.90;;;;;;5036671;28;20081;-14
2023/09/30 08:00:21;;;;;;;3.45;1.88;;;17.70;99.90;;;;;;5077406;28;20504;-14
2023/09/30 08:02:47;;;;;;;3.35;2.03;;;18.10;99.90;;;;;;5076399;28;20059;-14
2023/09/30 08:05:13;;;;;;;5.28;2.33;;;19.60;99.90;;;;;;5077566;28;20101;-14
2023/09/30 08:07:39;;;;;;;5.77;2.00;;;18.90;99.90;;;;;;5075705;28;20024;-14
2023/09/30 08:10:06;;;;;;;4.13;1.92;;;19.30;99.80;;;;;;5093536;28;20034;-14
2023/09/30 08:12:32;;;;;;;4.45;1.92;;;19.60;99.00;;;;;;5076584;28;20062;-14
2023/09/30 08:14:58;;;;;;;5.77;1.97;;;19.80;98.50;;;;;;5068781;28;20039;-14
2023/09/30 08:17:24;;;;;;;6.53;2.53;;;20.00;98.20;;;;;;5059458;28;20039;-14
2023/09/30 08:19:49;;;;;;;5.47;2.03;;;20.20;97.80;;;;;;5091733;28;20027;-13
2023/09/30 08:22:15;;;;;;;5.95;2.13;;;20.30;97.60;;;;;;5079407;28;20023;-14
2023/09/30 08:24:41;;;;;;;4.97;1.97;;;20.40;97.50;;;;;;5087945;28;20109;-13
2023/09/30 08:27:06;;;;;;;6.63;2.40;;;20.40;97.40;;;;;;5091870;28;20023;-14
2023/09/30 08:29:38;;;;;;;5.57;2.20;;;20.50;97.20;;;;;;5042255;28;20028;-14
2023/09/30 08:32:04;;;;;;;6.55;2.30;;;20.60;96.80;;;;;;5064023;28;20081;-14
2023/09/30 08:34:30;;;;;;;5.90;2.08;;;20.60;97.10;;;;;;5090040;28;20042;-13
2023/09/30 08:36:57;;;;;;;5.50;2.10;;;20.70;97.30;;;;;;5078092;28;20026;-14
2023/09/30 08:39:24;;;;;;;5.90;2.13;;;20.80;97.30;;;;;;5088483;28;20031;-13
2023/09/30 08:41:50;;;;;;;7.73;2.10;;;20.90;97.60;;;;;;5057275;28;20312;-14
2023/09/30 08:44:16;;;;;;;6.60;2.25;;;21.00;97.50;;;;;;5077112;28;20027;-14
2023/09/30 08:46:43;;;;;;;6.97;2.08;;;21.80;98.00;;;;;;5053190;28;20048;-15
2023/09/30 08:49:11;;;;;;;5.47;2.08;;;21.20;97.90;;;;;;5074927;28;20486;-16
2023/09/30 08:51:36;;;;;;;4.47;2.00;;;21.40;97.90;;;;;;5069392;28;20704;-15
2023/09/30 08:54:03;;;;;;;6.13;1.90;;;21.60;98.30;;;;;;5047146;28;20024;-13
2023/09/30 08:56:34;;;;;;;4.47;1.88;;;21.90;98.80;;;;;;5090265;28;20020;-14
2023/09/30 08:59:03;;;;;;;5.10;2.05;;;22.20;99.00;;;;;;5082096;28;20024;-14
2023/09/30 09:01:30;;;;;;;6.32;2.00;;;22.50;99.00;;;;;;5050040;28;20032;-13
2023/09/30 09:03:57;;;;;;;7.72;2.10;;;22.90;98.90;;;;;;5074748;28;20044;-13
2023/09/30 09:06:24;;;;;;;6.27;2.07;;;23.30;99.00;;;;;;5087923;28;20508;-13
2023/09/30 09:08:50;;;;;;;5.25;2.03;;;23.60;98.60;;;;;;5080567;28;20028;-13
2023/09/30 09:11:17;;;;;;;6.38;2.03;;;24.00;98.40;;;;;;5090869;28;20066;-14
2023/09/30 09:13:53;;;;;;;4.50;1.60;;;24.30;98.10;;;;;;5090004;28;20027;-14
2023/09/30 09:16:19;;;;;;;7.07;2.00;;;25.20;97.20;;;;;;5041720;28;20031;-14
2023/09/30 09:18:47;;;;;;;4.70;2.00;;;24.80;97.10;;;;;;5072129;28;20589;-14
2023/09/30 09:21:17;;;;;;;5.18;2.10;;;25.10;96.80;;;;;;5074479;28;20534;-14
2023/09/30 09:23:45;;;;;;;6.03;1.70;;;25.30;95.80;;;;;;5076145;28;20673;-14
2023/09/30 09:26:13;;;;;;;4.43;1.75;;;25.50;96.40;;;;;;5038660;28;20038;-13
2023/09/30 09:28:39;;;;;;;5.63;2.07;;;25.80;96.10;;;;;;5072936;27;20032;-13
2023/09/30 09:31:23;;;;;;;4.60;2.00;;;26.00;96.10;;;;;;5079018;27;20066;-13
2023/09/30 09:33:50;;;;;;;4.78;2.00;;;26.20;93.60;;;;;;5043769;28;20054;-13
2023/09/30 09:36:16;;;;;;;4.60;1.65;;;26.40;95.40;;;;;;5070418;28;20070;-14
2023/09/30 09:38:53;;;;;;;5.68;1.70;;;26.60;95.50;;;;;;5065440;28;20138;-14
2023/09/30 09:41:19;;;;;;;5.80;1.97;;;26.90;93.70;;;;;;5058609;28;20102;-14
2023/09/30 09:43:49;;;;;;;4.53;2.00;;;27.10;95.20;;;;;;5085947;28;20032;-14
2023/09/30 09:46:16;;;;;;;5.60;2.17;;;27.20;94.40;;;;;;5062900;28;20027;-13
2023/09/30 09:48:45;;;;;;;4.75;2.25;;;27.50;95.20;;;;;;5061928;28;20743;-14
2023/09/30 09:51:12;;;;;;;5.57;2.20;;;27.80;95.40;;;;;;5075767;28;20031;-14
2023/09/30 09:53:40;;;;;;;5.23;2.00;;;28.10;95.40;;;;;;5041551;28;20344;-13
2023/09/30 09:56:10;;;;;;;4.40;1.80;;;28.40;94.90;;;;;;5064601;28;20024;-14
2023/09/30 09:58:38;;;;;;;4.05;1.92;;;28.70;94.20;;;;;;5069074;28;20872;-13
2023/09/30 10:01:06;;;;;;;4.65;2.10;;;29.00;94.50;;;;;;5089375;28;20100;-14
2023/09/30 10:03:32;;;;;;;4.43;1.90;;;29.30;93.50;;;;;;5050075;28;20569;-14
2023/09/30 10:06:02;;;;;;;4.30;1.70;;;29.50;93.90;;;;;;5087812;28;20015;-14
2023/09/30 10:08:36;;;;;;;3.72;1.83;;;29.70;93.40;;;;;;5083541;28;20174;-14
2023/09/30 10:11:02;;;;;;;3.35;1.80;;;29.90;91.60;;;;;;5075237;28;20551;-14
2023/09/30 10:14:03;;;;;;;3.83;1.70;;;30.00;92.50;;;;;;5051926;28;20240;-15
2023/09/30 10:16:35;;;;;;;4.50;1.73;;;30.20;89.70;;;;;;5033843;28;20138;-15
2023/09/30 10:19:08;;;;;;;4.00;1.47;;;30.30;88.90;;;;;;5045436;28;20044;-15
2023/09/30 10:21:34;;;;;;;2.80;1.60;;;30.40;87.80;;;;;;5068505;28;20024;-16
2023/09/30 10:24:21;;;;;;;4.68;1.60;;;30.40;90.40;;;;;;5065470;28;20129;-15
2023/09/30 10:27:07;;;;;;;3.08;1.40;;;30.40;85.40;;;;;;5067003;28;20038;-16
2023/09/30 10:29:42;;;;;;;3.67;1.50;;;30.40;88.50;;;;;;5078517;28;20062;-15
2023/09/30 10:32:08;;;;;;;4.13;1.60;;;30.30;85.20;;;;;;5057779;28;20040;-15
2023/09/30 10:34:34;;;;;;;4.13;1.92;;;30.40;89.60;;;;;;5058234;28;20265;-15
2023/09/30 10:37:20;;;;;;;3.10;1.80;;;30.60;89.90;;;;;;5087552;28;20596;-15
2023/09/30 10:39:59;;;;;;;5.10;1.77;;;30.80;85.50;;;;;;5075704;28;20100;-15
2023/09/30 10:42:49;;;;;;;4.60;1.88;;;31.20;83.70;;;;;;5059749;28;20024;-15
2023/09/30 10:45:50;;;;;;;3.53;1.80;;;31.40;82.50;;;;;;5068504;28;20114;-15
2023/09/30 10:48:25;;;;;;;3.58;1.77;;;31.60;80.00;;;;;;5010792;28;20058;-15
2023/09/30 10:50:55;;;;;;;4.22;1.80;;;31.40;78.90;;;;;;5060349;28;20039;-15
2023/09/30 10:53:21;;;;;;;3.23;1.80;;;31.30;80.30;;;;;;5057065;28;20308;-15
2023/09/30 10:55:54;;;;;;;3.97;1.55;;;31.20;82.00;;;;;;5087521;28;20024;-15
2023/09/30 10:58:20;;;;;;;4.30;1.67;;;31.20;81.10;;;;;;5057143;28;20043;-15
2023/09/30 11:00:55;;;;;;;4.53;2.13;;;31.20;82.10;;;;;;5063815;28;20735;-15
2023/09/30 11:03:21;;;;;;;3.97;1.47;;;31.20;77.40;;;;;;5064129;28;20020;-15
2023/09/30 11:05:48;;;;;;;4.78;1.60;;;31.30;81.80;;;;;;5065506;28;20486;-15
2023/09/30 11:08:17;;;;;;;3.97;1.90;;;31.50;80.90;;;;;;5061558;28;20517;-14
2023/09/30 11:10:50;;;;;;;2.45;1.20;;;31.60;80.40;;;;;;5069862;28;20036;-15
2023/09/30 11:13:20;;;;;;;3.70;1.70;;;31.70;77.70;;;;;;5070795;28;20434;-14
2023/09/30 11:15:46;;;;;;;3.37;1.93;;;31.90;80.90;;;;;;5073338;28;20027;-15
2023/09/30 11:18:16;;;;;;;3.00;1.58;;;32.20;80.60;;;;;;5058665;28;20062;-15
2023/09/30 11:20:44;;;;;;;3.47;1.80;;;32.40;77.20;;;;;;5034707;28;21297;-15
2023/09/30 11:23:10;;;;;;;4.10;1.67;;;32.60;78.30;;;;;;5074332;28;20517;-15
2023/09/30 11:25:37;;;;;;;2.97;1.80;;;32.80;78.00;;;;;;5052974;28;20085;-15
2023/09/30 11:28:37;;;;;;;3.03;1.63;;;33.00;77.10;;;;;;5046892;28;20024;-15
2023/09/30 11:31:03;;;;;;;3.20;1.70;;;33.10;71.30;;;;;;5074370;27;20039;-15
2023/09/30 11:33:30;;;;;;;4.38;2.08;;;33.20;75.30;;;;;;5053856;28;20027;-13
2023/09/30 11:36:03;;;;;;;3.60;1.70;;;33.30;74.50;;;;;;5079659;28;20114;-14
2023/09/30 11:38:30;;;;;;;4.15;1.80;;;35.90;73.30;;;;;;5025234;28;20363;-13
2023/09/30 11:41:06;;;;;;;3.80;1.70;;;33.50;73.20;;;;;;5081410;28;20020;-13
2023/09/30 11:43:33;;;;;;;2.95;1.60;;;33.60;69.40;;;;;;5072418;28;20020;-13
2023/09/30 11:46:10;;;;;;;3.25;1.60;;;33.50;70.00;;;;;;5062483;28;20544;-14
2023/09/30 11:48:37;;;;;;;3.50;1.60;;;33.50;66.00;;;;;;5050771;28;20795;-13
2023/09/30 11:51:04;;;;;;;2.92;1.67;;;33.50;69.70;;;;;;5056054;28;20028;-14
2023/09/30 11:53:31;;;;;;;2.77;1.70;;;33.40;68.60;;;;;;5039306;28;20084;-14
2023/09/30 11:56:02;;;;;;;3.72;1.70;;;33.40;68.10;;;;;;5072919;28;20024;-13
2023/09/30 11:58:28;;;;;;;5.15;2.03;;;33.40;66.70;;;;;;5077831;28;20051;-13
2023/09/30 12:00:54;;;;;;;2.53;1.60;;;33.50;68.70;;;;;;5039176;28;20178;-14
2023/09/30 12:03:21;;;;;;;4.90;1.80;;;33.60;68.90;;;;;;5088043;28;20020;-14
2023/09/30 12:05:48;;;;;;;3.43;1.90;;;33.80;69.00;;;;;;5078419;28;20045;-14
2023/09/30 12:08:14;;;;;;;2.45;1.70;;;34.00;68.10;;;;;;5059276;28;20028;-14
2023/09/30 12:10:40;;;;;;;2.83;1.80;;;34.00;66.40;;;;;;5085031;27;20035;-14
2023/09/30 12:13:06;;;;;;;4.05;1.73;;;34.00;64.60;;;;;;5073794;28;20109;-14
2023/09/30 12:15:32;;;;;;;3.70;1.50;;;33.80;63.20;;;;;;5074294;28;20115;-13
2023/09/30 12:17:57;;;;;;;2.72;1.40;;;33.50;62.10;;;;;;5070764;27;20230;-14
2023/09/30 12:20:25;;;;;;;2.87;1.20;;;33.20;62.20;;;;;;5085697;28;20035;-14
2023/09/30 12:22:52;;;;;;;3.95;1.55;;;33.00;62.40;;;;;;5040819;28;20031;-14
2023/09/30 12:25:21;;;;;;;4.43;1.77;;;32.90;62.60;;;;;;5091014;28;20024;-13
2023/09/30 12:27:51;;;;;;;3.17;1.58;;;32.90;61.20;;;;;;5086255;28;20367;-13
2023/09/30 12:30:20;;;;;;;2.97;1.50;;;32.70;60.80;;;;;;5074734;28;20455;-14
2023/09/30 12:32:48;;;;;;;2.97;1.50;;;32.40;60.40;;;;;;5083690;28;20028;-13
2023/09/30 12:35:14;;;;;;;3.58;1.50;;;32.10;59.40;;;;;;5076764;28;20086;-13
2023/09/30 12:37:45;;;;;;;3.75;1.48;;;31.70;59.00;;;;;;5067809;28;20031;-14
2023/09/30 12:40:13;;;;;;;2.75;1.55;;;31.40;59.20;;;;;;5070692;28;20261;-14
2023/09/30 12:42:39;;;;;;;4.05;1.40;;;31.20;60.00;;;;;;5071301;28;20449;-14
2023/09/30 12:45:05;;;;;;;3.53;1.57;;;31.00;60.30;;;;;;5080547;27;20231;-15
2023/09/30 12:47:31;;;;;;;3.38;1.40;;;30.90;60.80;;;;;;5091021;28;20169;-15
2023/09/30 12:49:57;;;;;;;2.97;1.40;;;30.90;61.30;;;;;;5075910;28;20028;-15
2023/09/30 12:52:24;;;;;;;2.80;1.43;;;30.90;61.60;;;;;;5062582;28;20066;-15